Time;durP1;ratioP1;P1;durP2;ratioP2;P2;SDS_P1;SDS_P2;PMS_P1;PMS_P2;Temp;Humidity;BMP_temperature;BMP_pressure;BME280_temperature;BME280_humidity;BME280_pressure;Samples;Min_cycle;Max_cycle;Signal;HPM_P1;HPM_P2
2022/03/05 00:01:47;;;;;;;25.55;11.13;;;;;;;1.47;72.57;102069.59;5035832;28;20033;-73
2022/03/05 00:04:14;;;;;;;23.35;10.57;;;;;;;1.50;72.43;102064.28;5054107;28;20386;-73
2022/03/05 00:06:39;;;;;;;29.25;11.77;;;;;;;1.28;73.24;102071.63;5035999;28;20119;-73
2022/03/05 00:09:04;;;;;;;22.05;10.45;;;;;;;1.30;72.98;102070.63;5053853;28;20112;-74
2022/03/05 00:11:30;;;;;;;29.63;11.57;;;;;;;1.30;73.18;102062.97;5054430;28;20071;-73
2022/03/05 00:13:55;;;;;;;25.50;11.13;;;;;;;1.11;73.74;102070.13;5055391;28;20120;-73
2022/03/05 00:16:20;;;;;;;33.00;10.90;;;;;;;1.08;73.24;102032.91;5037601;28;20025;-74
2022/03/05 00:18:45;;;;;;;28.67;10.73;;;;;;;1.25;73.30;102069.28;5055103;28;20455;-74
2022/03/05 00:21:11;;;;;;;25.02;10.40;;;;;;;1.00;73.42;102050.38;5055360;28;20037;-74
2022/03/05 00:23:36;;;;;;;24.52;11.13;;;;;;;1.08;73.56;102065.22;5037386;28;20472;-74
2022/03/05 00:26:01;;;;;;;25.92;10.60;;;;;;;0.80;74.88;102036.31;5055171;28;20033;-73
2022/03/05 00:28:27;;;;;;;27.30;10.45;;;;;;;1.08;74.01;102062.66;5037244;28;20116;-73
2022/03/05 00:30:58;;;;;;;25.95;10.90;;;;;;;0.99;74.21;102068.31;5037307;28;20512;-74
2022/03/05 00:33:23;;;;;;;26.80;10.32;;;;;;;0.97;74.64;102058.22;5037284;28;20032;-73
2022/03/05 00:35:48;;;;;;;27.05;10.38;;;;;;;1.07;74.54;102061.03;5037085;28;20151;-73
2022/03/05 00:38:13;;;;;;;25.40;10.13;;;;;;;1.09;73.98;102065.13;5054971;28;20505;-73
2022/03/05 00:40:41;;;;;;;26.52;11.15;;;;;;;1.19;74.17;102064.56;5054849;28;20025;-73
2022/03/05 00:43:06;;;;;;;24.75;10.52;;;;;;;1.15;74.01;102055.47;5036955;28;20021;-73
2022/03/05 00:45:31;;;;;;;25.55;11.05;;;;;;;1.16;73.92;102062.19;5055106;28;20075;-74
2022/03/05 00:47:57;;;;;;;23.83;10.13;;;;;;;1.19;74.39;102054.38;5054761;28;20104;-73
2022/03/05 00:50:22;;;;;;;29.65;11.48;;;;;;;0.93;73.87;102056.78;5054768;28;20063;-73
2022/03/05 00:52:47;;;;;;;23.73;10.73;;;;;;;0.85;74.51;102067.41;5054460;28;20112;-73
2022/03/05 00:55:13;;;;;;;23.42;10.80;;;;;;;0.79;75.57;102060.16;5054633;28;20036;-73
2022/03/05 00:57:38;;;;;;;24.05;11.07;;;;;;;0.68;75.86;102057.41;5054631;28;20032;-73
2022/03/05 01:00:05;;;;;;;26.52;10.82;;;;;;;0.64;75.93;102056.78;5054269;28;20101;-73
2022/03/05 01:02:31;;;;;;;25.60;10.73;;;;;;;0.72;75.46;102061.44;5054391;28;20025;-74
2022/03/05 01:04:56;;;;;;;23.80;10.27;;;;;;;0.64;76.12;102033.09;5036805;28;20031;-74
2022/03/05 01:07:21;;;;;;;26.95;10.75;;;;;;;0.49;75.23;102028.88;5054399;28;20025;-74
2022/03/05 01:09:47;;;;;;;26.52;11.40;;;;;;;0.76;75.18;102069.69;5036452;28;20464;-74
2022/03/05 01:12:12;;;;;;;26.63;10.60;;;;;;;0.81;75.82;102071.06;5054350;28;20510;-74
2022/03/05 01:14:37;;;;;;;27.80;10.65;;;;;;;0.73;75.62;102072.44;5054771;28;20075;-73
2022/03/05 01:17:03;;;;;;;26.42;10.77;;;;;;;0.80;75.33;102073.69;5036388;28;20120;-73
2022/03/05 01:19:28;;;;;;;25.30;10.70;;;;;;;0.56;75.40;102068.34;5054138;28;20028;-74
2022/03/05 01:21:53;;;;;;;26.65;10.82;;;;;;;0.43;76.18;102071.59;5036222;28;20025;-74
2022/03/05 01:24:19;;;;;;;24.60;10.90;;;;;;;0.75;75.96;102079.06;5036252;28;20464;-73
2022/03/05 01:26:44;;;;;;;26.00;10.77;;;;;;;0.86;75.22;102080.94;5054049;28;20104;-73
2022/03/05 01:29:09;;;;;;;26.98;10.93;;;;;;;0.61;74.84;102048.53;5036087;28;20021;-73
2022/03/05 01:31:36;;;;;;;27.23;11.07;;;;;;;0.76;74.98;102074.78;5054159;28;20031;-74
2022/03/05 01:34:01;;;;;;;27.60;10.85;;;;;;;0.66;75.61;102079.59;5036058;28;20416;-74
2022/03/05 01:36:26;;;;;;;24.90;10.93;;;;;;;0.65;75.33;102075.41;5053793;28;20024;-74
2022/03/05 01:38:52;;;;;;;28.33;11.00;;;;;;;0.67;75.42;102078.69;5053813;28;20021;-74
2022/03/05 01:41:17;;;;;;;24.80;10.88;;;;;;;0.75;75.22;102058.72;5036023;28;20021;-74
2022/03/05 01:43:49;;;;;;;26.63;10.20;;;;;;;0.59;75.31;102071.50;5036046;28;20025;-73
2022/03/05 01:46:14;;;;;;;23.58;10.50;;;;;;;0.59;75.48;102071.50;5035754;28;20024;-73
2022/03/05 01:48:39;;;;;;;23.17;10.23;;;;;;;0.70;75.61;102077.69;5035795;28;20021;-73
2022/03/05 01:51:05;;;;;;;29.90;11.40;;;;;;;0.53;75.31;102071.06;5035880;28;20024;-74
2022/03/05 01:53:30;;;;;;;25.23;11.05;;;;;;;0.65;75.46;102078.78;5035497;28;20487;-73
2022/03/05 01:55:55;;;;;;;23.58;10.90;;;;;;;0.50;75.17;102069.50;5035862;28;20025;-74
2022/03/05 01:58:21;;;;;;;26.83;10.95;;;;;;;0.58;76.06;102074.16;5053387;28;20028;-73
2022/03/05 02:00:46;;;;;;;24.30;10.90;;;;;;;0.49;75.78;102065.34;5035589;28;20033;-74
2022/03/05 02:03:11;;;;;;;29.38;11.95;;;;;;;0.58;75.40;102071.63;5053392;28;20024;-74
2022/03/05 02:05:37;;;;;;;24.65;10.48;;;;;;;0.49;75.91;102067.88;5053369;28;20035;-74
2022/03/05 02:08:04;;;;;;;27.10;11.23;;;;;;;0.63;75.48;102060.25;5035447;28;20028;-74
2022/03/05 02:10:29;;;;;;;24.70;10.63;;;;;;;0.41;75.93;102068.31;5034927;28;20048;-74
2022/03/05 02:12:55;;;;;;;26.80;11.05;;;;;;;0.30;76.29;102067.31;5053314;28;20494;-74
2022/03/05 02:15:20;;;;;;;23.92;10.85;;;;;;;0.20;76.51;102069.53;5053405;28;20025;-74
2022/03/05 02:17:45;;;;;;;27.50;11.15;;;;;;;0.33;77.22;102062.84;5053228;28;20387;-74
2022/03/05 02:20:11;;;;;;;27.95;11.38;;;;;;;0.27;76.62;102063.22;5053173;28;20021;-74
2022/03/05 02:22:36;;;;;;;27.48;11.88;;;;;;;0.24;76.62;102063.38;5035274;28;20451;-74
2022/03/05 02:25:05;;;;;;;23.17;10.95;;;;;;;0.30;76.66;102068.13;5053267;28;20399;-74
2022/03/05 02:27:30;;;;;;;27.95;11.52;;;;;;;0.29;76.27;102058.88;5035158;28;20543;-74
2022/03/05 02:29:57;;;;;;;25.85;10.82;;;;;;;0.24;76.48;102060.84;5053037;28;20155;-74
2022/03/05 02:32:23;;;;;;;22.75;10.88;;;;;;;0.15;76.93;102062.19;5035320;28;20387;-74
2022/03/05 02:34:49;;;;;;;28.10;11.55;;;;;;;0.23;76.81;102059.19;5035178;28;20025;-74
2022/03/05 02:37:16;;;;;;;26.20;11.32;;;;;;;0.22;77.19;102060.09;5053065;28;20035;-74
2022/03/05 02:39:43;;;;;;;29.90;11.50;;;;;;;0.29;76.82;102063.09;5035285;28;20453;-74
2022/03/05 02:42:09;;;;;;;25.88;10.65;;;;;;;0.28;76.71;102064.84;5052924;28;20036;-74
2022/03/05 02:44:34;;;;;;;27.70;11.75;;;;;;;0.29;77.40;102069.03;5053029;28;20468;-74
2022/03/05 02:46:59;;;;;;;25.55;11.23;;;;;;;0.20;76.44;102064.44;5034971;28;20465;-74
2022/03/05 02:49:25;;;;;;;27.88;11.35;;;;;;;0.18;76.48;102069.63;5035119;28;20025;-74
2022/03/05 02:51:51;;;;;;;28.48;11.57;;;;;;;-0.03;77.15;102063.22;5052855;28;20020;-74
2022/03/05 02:54:16;;;;;;;28.13;11.90;;;;;;;-0.04;77.54;102064.94;5051420;28;20045;-74
2022/03/05 02:56:42;;;;;;;27.38;11.50;;;;;;;-0.11;78.08;102058.59;5033438;28;20025;-74
2022/03/05 02:59:07;;;;;;;27.90;12.00;;;;;;;-0.01;78.03;102057.16;5033211;28;20021;-75
2022/03/05 03:01:32;;;;;;;29.20;11.35;;;;;;;-0.05;78.09;102060.78;5052745;28;20043;-74
2022/03/05 03:03:58;;;;;;;29.00;12.15;;;;;;;-0.01;77.65;102057.16;5034496;28;20025;-74
2022/03/05 03:06:23;;;;;;;27.45;12.27;;;;;;;-0.12;78.08;102056.13;5052815;28;20448;-74
2022/03/05 03:08:48;;;;;;;26.77;11.77;;;;;;;-0.02;78.22;102063.16;5052760;28;20099;-75
2022/03/05 03:11:14;;;;;;;29.58;11.95;;;;;;;0.05;77.70;102050.09;5034878;28;20079;-74
2022/03/05 03:13:39;;;;;;;29.23;12.23;;;;;;;0.17;76.95;102062.09;5053057;28;20486;-75
2022/03/05 03:16:04;;;;;;;28.38;11.25;;;;;;;0.06;77.23;102060.19;5034758;28;20475;-75
2022/03/05 03:18:30;;;;;;;27.95;11.50;;;;;;;-0.07;77.39;102062.56;5052673;28;20029;-74
2022/03/05 03:20:55;;;;;;;27.95;11.43;;;;;;;0.09;77.57;102074.44;5052626;28;20082;-75
2022/03/05 03:23:20;;;;;;;25.70;11.88;;;;;;;-0.04;76.90;102062.41;5056206;28;20029;-75
2022/03/05 03:25:46;;;;;;;28.50;11.98;;;;;;;-0.51;78.63;102027.78;5037156;28;20047;-76
2022/03/05 03:28:11;;;;;;;30.55;12.32;;;;;;;-0.19;78.31;102058.19;5056339;28;20036;-76
2022/03/05 03:30:36;;;;;;;31.42;12.93;;;;;;;-0.14;78.40;102056.22;5038454;28;20066;-76
2022/03/05 03:33:02;;;;;;;31.92;11.70;;;;;;;-0.14;78.30;102058.75;5038384;28;20031;-76
2022/03/05 03:35:27;;;;;;;28.38;12.40;;;;;;;-0.05;78.01;102068.41;5056107;28;20032;-76
2022/03/05 03:37:53;;;;;;;28.05;12.18;;;;;;;-0.10;77.50;102065.28;5056128;28;20111;-76
2022/03/05 03:40:19;;;;;;;30.75;12.75;;;;;;;-0.18;77.90;102071.72;5056052;28;20487;-76
2022/03/05 03:42:47;;;;;;;29.00;12.55;;;;;;;-0.28;78.31;102061.25;5038170;28;20025;-76
2022/03/05 03:45:14;;;;;;;31.00;12.85;;;;;;;-0.36;78.64;102065.94;5055974;28;20467;-75
2022/03/05 03:47:42;;;;;;;28.63;12.05;;;;;;;-0.20;78.41;102070.97;5038125;28;20059;-76
2022/03/05 03:50:08;;;;;;;27.85;12.30;;;;;;;-0.39;78.36;102056.75;5057135;28;20057;-76
2022/03/05 03:52:34;;;;;;;29.45;11.95;;;;;;;-0.58;79.28;102048.50;5057291;28;20028;-76
2022/03/05 03:55:00;;;;;;;29.17;11.93;;;;;;;-0.71;80.01;102061.03;5057619;28;20049;-74
2022/03/05 03:57:26;;;;;;;32.22;12.88;;;;;;;-0.50;79.44;102062.41;5056553;28;20111;-74
2022/03/05 03:59:52;;;;;;;29.27;13.27;;;;;;;-0.46;79.72;102056.28;5058131;28;20087;-75
2022/03/05 04:02:19;;;;;;;34.13;12.65;;;;;;;-0.53;79.81;102059.22;5040581;28;20120;-75
2022/03/05 04:04:44;;;;;;;27.85;12.57;;;;;;;-0.45;78.91;102052.00;5057532;28;20490;-75
2022/03/05 04:09:54;;;;;;;32.85;13.30;;;;;;;-0.43;78.53;102051.91;5057233;28;20052;-75
2022/03/05 04:12:20;;;;;;;29.55;12.50;;;;;;;-0.34;79.26;102056.50;5039491;28;20020;-75
2022/03/05 04:14:45;;;;;;;29.92;12.18;;;;;;;-0.22;77.79;102038.03;5057170;28;20021;-75
2022/03/05 04:17:11;;;;;;;31.95;13.35;;;;;;;-0.29;78.31;102059.59;5056415;28;20029;-75
2022/03/05 04:19:36;;;;;;;27.80;12.52;;;;;;;-0.20;77.82;102056.56;5038286;28;20379;-75
2022/03/05 04:22:02;;;;;;;36.88;13.65;;;;;;;-0.17;77.47;102058.09;5038193;28;20049;-75
2022/03/05 04:24:27;;;;;;;33.05;13.70;;;;;;;-0.41;77.79;102062.81;5056137;28;20071;-75
2022/03/05 04:26:52;;;;;;;35.35;12.88;;;;;;;-0.54;78.74;102037.28;5056151;28;20021;-75
2022/03/05 04:29:18;;;;;;;31.33;13.27;;;;;;;-0.48;79.06;102055.53;5057720;28;20021;-74
2022/03/05 04:31:43;;;;;;;33.45;13.30;;;;;;;-0.27;78.36;102052.72;5059814;28;20112;-75
2022/03/05 04:34:08;;;;;;;31.88;12.88;;;;;;;-0.57;78.22;102060.31;5058090;28;20028;-75
2022/03/05 04:36:34;;;;;;;32.08;14.20;;;;;;;-0.54;79.09;102053.34;5057858;28;20078;-75
2022/03/05 04:38:59;;;;;;;32.45;12.27;;;;;;;-0.44;78.57;102055.38;5038518;28;20021;-75
2022/03/05 04:41:24;;;;;;;29.73;12.57;;;;;;;-0.57;79.51;102058.56;5056970;28;20364;-75
2022/03/05 04:43:49;;;;;;;31.38;13.52;;;;;;;-0.59;79.56;102057.84;5056902;28;20032;-75
2022/03/05 04:46:15;;;;;;;33.08;13.35;;;;;;;-0.61;79.59;102056.28;5056996;28;20110;-75
2022/03/05 04:48:41;;;;;;;31.33;13.50;;;;;;;-0.64;79.15;102048.81;5055668;28;20031;-75
2022/03/05 04:51:06;;;;;;;31.98;12.93;;;;;;;-0.51;79.70;102062.50;5038673;28;20024;-74
2022/03/05 04:53:31;;;;;;;32.60;13.95;;;;;;;-0.55;79.56;102061.84;5038737;28;20055;-75
2022/03/05 04:55:57;;;;;;;33.50;12.85;;;;;;;-0.50;79.20;102069.22;5056603;28;20097;-74
2022/03/05 04:58:22;;;;;;;30.23;13.07;;;;;;;-0.37;79.05;102069.38;5056970;28;20033;-75
2022/03/05 05:00:47;;;;;;;31.08;14.10;;;;;;;-0.48;78.99;102070.78;5038741;28;20530;-74
2022/03/05 05:03:13;;;;;;;31.92;13.18;;;;;;;-0.63;79.72;102068.22;5056686;28;20479;-75
2022/03/05 05:05:38;;;;;;;33.60;13.93;;;;;;;-0.63;80.07;102064.00;5056347;28;20016;-75
2022/03/05 05:08:04;;;;;;;35.78;13.82;;;;;;;-0.63;80.27;102063.16;5038536;28;20063;-75
2022/03/05 05:10:29;;;;;;;32.03;13.38;;;;;;;-0.42;79.87;102066.25;5056567;28;20082;-74
2022/03/05 05:12:54;;;;;;;32.22;13.35;;;;;;;-0.60;80.10;102065.56;5056033;28;20032;-75
2022/03/05 05:15:20;;;;;;;31.63;13.27;;;;;;;-0.75;80.29;102067.16;5055023;28;20080;-75
2022/03/05 05:17:45;;;;;;;33.20;13.35;;;;;;;-0.76;81.06;102066.34;5056582;28;20021;-75
2022/03/05 05:20:11;;;;;;;31.38;12.50;;;;;;;-0.74;80.29;102071.38;5037975;28;20025;-75
2022/03/05 05:22:37;;;;;;;34.40;13.75;;;;;;;-0.62;80.59;102067.34;5037691;28;20391;-76
2022/03/05 05:25:04;;;;;;;33.17;13.50;;;;;;;-0.84;80.60;102067.66;5054824;28;20016;-75
2022/03/05 05:27:33;;;;;;;33.50;13.57;;;;;;;-0.80;80.43;102076.78;5054589;28;20418;-75
2022/03/05 05:29:59;;;;;;;36.85;13.85;;;;;;;-0.73;81.05;102076.34;5061467;28;20017;-75
2022/03/05 05:32:24;;;;;;;34.67;13.85;;;;;;;-0.77;80.25;102069.81;5056305;28;20024;-75
2022/03/05 05:34:51;;;;;;;34.03;13.13;;;;;;;-1.07;81.86;102074.75;5056108;28;20052;-75
2022/03/05 05:37:16;;;;;;;33.55;13.85;;;;;;;-0.85;81.91;102079.53;5037898;28;20029;-75
2022/03/05 05:39:42;;;;;;;36.25;13.55;;;;;;;-0.83;81.16;102082.00;5055206;28;20460;-76
2022/03/05 05:42:07;;;;;;;33.03;13.15;;;;;;;-0.76;80.61;102078.22;5037307;28;20054;-76
2022/03/05 05:44:32;;;;;;;36.92;13.48;;;;;;;-0.91;80.25;102085.75;5054715;28;20032;-76
2022/03/05 05:46:58;;;;;;;35.30;14.43;;;;;;;-0.92;81.01;102078.22;5036298;28;20060;-74
2022/03/05 05:49:23;;;;;;;31.00;13.38;;;;;;;-0.87;81.79;102093.19;5054083;28;20207;-76
2022/03/05 05:51:48;;;;;;;33.15;13.73;;;;;;;-0.89;80.55;102093.31;5054864;28;20028;-74
2022/03/05 05:54:14;;;;;;;33.30;13.80;;;;;;;-0.80;80.59;102097.06;5038830;28;20044;-75
2022/03/05 05:56:39;;;;;;;31.17;12.90;;;;;;;-1.08;81.08;102090.06;5054279;28;20021;-76
2022/03/05 05:59:05;;;;;;;35.40;13.15;;;;;;;-1.03;81.62;102091.47;5036240;28;20028;-75
2022/03/05 06:01:30;;;;;;;33.47;13.80;;;;;;;-1.02;81.54;102090.56;5054137;28;20104;-76
2022/03/05 06:03:56;;;;;;;35.53;13.98;;;;;;;-1.03;81.33;102091.47;5054441;28;20075;-75
2022/03/05 06:06:22;;;;;;;35.95;13.50;;;;;;;-1.15;81.07;102081.97;5054404;28;20055;-75
2022/03/05 06:08:47;;;;;;;36.10;14.63;;;;;;;-1.10;80.86;102087.59;5035755;28;20119;-75
2022/03/05 06:11:13;;;;;;;35.10;13.77;;;;;;;-1.20;81.76;102091.53;5035908;28;20028;-76
2022/03/05 06:13:38;;;;;;;34.65;13.48;;;;;;;-1.11;81.56;102083.44;5035892;28;20032;-77
2022/03/05 06:16:04;;;;;;;34.75;13.68;;;;;;;-1.08;80.68;102088.34;5053820;28;20063;-76
2022/03/05 06:18:29;;;;;;;35.25;13.65;;;;;;;-0.96;80.81;102090.25;5053159;28;20431;-75
2022/03/05 06:20:55;;;;;;;39.47;13.93;;;;;;;-1.26;81.06;102053.78;5058506;28;20017;-76
2022/03/05 06:23:20;;;;;;;30.92;12.77;;;;;;;-0.98;80.05;102084.44;5050898;28;20029;-77
2022/03/05 06:25:46;;;;;;;38.25;13.95;;;;;;;-1.17;80.51;102076.97;5059216;28;20029;-77
2022/03/05 06:28:13;;;;;;;36.10;14.52;;;;;;;-0.99;80.15;102087.06;5070813;28;20557;-81
2022/03/05 06:30:38;;;;;;;42.83;14.00;;;;;;;-1.02;80.82;102085.50;5071872;28;20014;-76
2022/03/05 06:33:04;;;;;;;35.47;14.07;;;;;;;-0.87;80.64;102085.59;5069602;28;20035;-78
2022/03/05 06:35:29;;;;;;;31.92;13.77;;;;;;;-1.01;80.16;102097.28;5054961;28;20079;-75
2022/03/05 06:37:54;;;;;;;30.92;13.13;;;;;;;-0.98;80.15;102091.22;5045530;28;20039;-78
2022/03/05 06:40:20;;;;;;;35.42;13.48;;;;;;;-0.66;79.72;102093.78;5043133;28;20076;-75
2022/03/05 06:42:45;;;;;;;37.20;14.32;;;;;;;-0.70;78.85;102098.22;5056433;28;20048;-75
2022/03/05 06:45:11;;;;;;;39.20;15.00;;;;;;;-0.72;79.02;102110.16;5041507;28;20025;-76
2022/03/05 06:47:38;;;;;;;36.13;14.23;;;;;;;-0.93;79.31;102079.94;5070801;28;20021;-80
2022/03/05 06:50:06;;;;;;;36.05;14.02;;;;;;;-0.60;78.25;102114.59;5066620;28;20017;-75
2022/03/05 06:52:31;;;;;;;39.30;14.43;;;;;;;-0.55;78.29;102112.63;5065598;28;20042;-75
2022/03/05 06:54:57;;;;;;;36.25;14.45;;;;;;;-0.62;78.16;102118.94;5045541;28;20133;-75
2022/03/05 06:57:23;;;;;;;38.08;15.00;;;;;;;-0.68;78.77;102109.13;5039569;28;20021;-74
2022/03/05 06:59:48;;;;;;;37.72;14.88;;;;;;;-0.60;78.09;102123.94;5053802;28;20028;-72
2022/03/05 07:02:14;;;;;;;36.83;14.27;;;;;;;-0.55;78.29;102125.31;5057163;28;20029;-74
2022/03/05 07:04:40;;;;;;;37.03;14.45;;;;;;;-0.53;77.80;102120.97;5038756;28;20029;-73
2022/03/05 07:07:06;;;;;;;33.47;13.55;;;;;;;-0.47;77.24;102113.03;5039846;28;20024;-74
2022/03/05 07:09:32;;;;;;;39.38;14.57;;;;;;;-0.35;77.29;102118.34;5056656;28;20025;-74
2022/03/05 07:11:58;;;;;;;34.15;13.88;;;;;;;-0.49;78.01;102119.94;5056531;28;20429;-74
2022/03/05 07:14:23;;;;;;;37.08;14.55;;;;;;;-0.31;76.76;102128.28;5037581;28;20029;-74
2022/03/05 07:16:48;;;;;;;36.95;14.82;;;;;;;-0.28;76.65;102123.03;5037448;28;20029;-73
2022/03/05 07:19:13;;;;;;;34.33;14.73;;;;;;;-0.19;76.09;102129.34;5056335;28;20383;-75
2022/03/05 07:21:39;;;;;;;43.75;14.82;;;;;;;-0.19;76.47;102131.88;5038564;28;20487;-75
2022/03/05 07:24:05;;;;;;;39.38;15.60;;;;;;;-0.15;75.96;102125.72;5055779;28;20025;-75
2022/03/05 07:26:30;;;;;;;41.53;16.08;;;;;;;-0.12;76.42;102130.63;5037333;28;20028;-75
2022/03/05 07:28:55;;;;;;;38.53;14.88;;;;;;;-0.35;77.76;102126.78;5036558;28;20028;-75
2022/03/05 07:31:21;;;;;;;37.35;15.05;;;;;;;-0.18;76.68;102130.97;5036463;28;20108;-74
2022/03/05 07:33:46;;;;;;;37.13;15.07;;;;;;;0.09;75.97;102140.53;5054631;28;20048;-76
2022/03/05 07:36:11;;;;;;;38.67;14.63;;;;;;;0.08;75.37;102126.97;5054382;28;20052;-76
2022/03/05 07:38:40;;;;;;;41.10;15.00;;;;;;;0.15;76.00;102141.00;5036295;28;20444;-71
2022/03/05 07:41:06;;;;;;;39.53;15.00;;;;;;;0.15;75.92;102135.91;5054248;28;20029;-71
2022/03/05 07:43:31;;;;;;;40.58;16.73;;;;;;;3.00;69.16;102137.03;5036264;28;20094;-71
2022/03/05 07:45:57;;;;;;;38.20;14.60;;;;;;;5.47;58.96;102124.91;5036080;28;20023;-71
2022/03/05 07:48:22;;;;;;;34.70;15.57;;;;;;;6.11;55.02;102134.38;5054120;28;20150;-71
2022/03/05 07:50:48;;;;;;;36.33;15.38;;;;;;;5.50;55.37;102118.75;5036026;28;20013;-72
2022/03/05 07:53:14;;;;;;;35.45;15.02;;;;;;;5.02;56.55;102131.84;5035937;28;20061;-71
2022/03/05 07:55:40;;;;;;;34.30;16.00;;;;;;;6.25;54.08;102136.66;5055129;28;20060;-72
2022/03/05 07:58:05;;;;;;;34.70;16.45;;;;;;;6.99;52.69;102153.63;5037618;28;20083;-71
2022/03/05 08:00:31;;;;;;;32.42;16.40;;;;;;;7.58;50.85;102137.41;5037668;28;20052;-71
2022/03/05 08:02:57;;;;;;;33.13;16.70;;;;;;;6.30;54.18;102149.94;5056399;28;20040;-73
2022/03/05 08:05:22;;;;;;;37.22;17.75;;;;;;;7.56;50.48;102136.72;5041765;28;20021;-72
2022/03/05 08:07:47;;;;;;;32.72;17.33;;;;;;;7.84;48.64;102136.91;5037288;28;20021;-70
2022/03/05 08:10:13;;;;;;;34.47;16.90;;;;;;;7.90;48.58;102133.78;5054464;28;20021;-71
2022/03/05 08:12:38;;;;;;;32.25;17.25;;;;;;;8.07;48.12;102145.16;5037590;28;20024;-70
2022/03/05 08:15:06;;;;;;;32.83;18.70;;;;;;;8.59;47.92;102153.34;5055602;28;20028;-70
2022/03/05 08:17:31;;;;;;;34.22;18.05;;;;;;;9.34;45.62;102156.69;5037625;28;20434;-71
2022/03/05 08:19:56;;;;;;;33.03;18.50;;;;;;;9.86;44.32;102151.69;5055455;28;20025;-71
2022/03/05 08:22:22;;;;;;;31.02;18.55;;;;;;;9.73;44.35;102155.63;5055267;28;20090;-70
2022/03/05 08:24:48;;;;;;;31.45;18.80;;;;;;;9.85;43.54;102162.19;5055361;28;20029;-71
2022/03/05 08:27:13;;;;;;;29.58;18.23;;;;;;;10.21;44.05;102172.47;5055214;28;20167;-70
2022/03/05 08:29:38;;;;;;;35.45;19.00;;;;;;;10.31;42.79;102165.47;5055266;28;20078;-71
2022/03/05 08:32:04;;;;;;;37.17;19.42;;;;;;;10.35;43.12;102152.09;5055390;28;20028;-71
2022/03/05 08:34:29;;;;;;;32.58;19.30;;;;;;;9.34;44.33;102168.78;5055614;28;20159;-71
2022/03/05 08:36:56;;;;;;;32.10;18.92;;;;;;;10.45;42.36;102154.59;5055147;28;20025;-72
2022/03/05 08:39:21;;;;;;;34.35;19.73;;;;;;;10.86;42.18;102178.06;5038830;28;20020;-71
2022/03/05 08:41:47;;;;;;;31.30;19.27;;;;;;;11.27;41.15;102170.47;5055296;28;20037;-72
2022/03/05 08:44:13;;;;;;;30.35;18.33;;;;;;;11.39;40.57;102174.38;5038143;28;20488;-70
2022/03/05 08:46:39;;;;;;;34.25;19.08;;;;;;;11.45;40.78;102183.28;5056552;28;20079;-71
2022/03/05 08:49:04;;;;;;;30.98;18.95;;;;;;;11.61;40.47;102185.13;5037966;28;20061;-72
2022/03/05 08:51:31;;;;;;;29.15;17.67;;;;;;;11.91;39.27;102156.06;5038371;28;20061;-73
2022/03/05 08:53:57;;;;;;;31.98;19.52;;;;;;;12.73;38.10;102166.28;5036642;28;20044;-73
2022/03/05 08:56:23;;;;;;;30.48;18.67;;;;;;;12.64;37.40;102169.88;5056269;28;20037;-72
2022/03/05 08:58:48;;;;;;;32.47;19.30;;;;;;;13.30;36.60;102175.63;5039085;28;20017;-71
2022/03/05 09:01:14;;;;;;;30.88;19.27;;;;;;;13.72;36.17;102180.41;5039045;28;20025;-71
2022/03/05 09:03:39;;;;;;;31.52;18.48;;;;;;;13.38;36.65;102167.81;5037698;28;20028;-72
2022/03/05 09:06:04;;;;;;;31.55;19.15;;;;;;;13.17;36.29;102170.94;5037184;28;20075;-71
2022/03/05 09:08:30;;;;;;;32.38;19.80;;;;;;;13.98;35.36;102169.66;5037571;28;20021;-73
2022/03/05 09:10:55;;;;;;;36.63;20.50;;;;;;;14.17;34.83;102170.94;5055404;28;20013;-71
2022/03/05 09:13:20;;;;;;;32.17;19.83;;;;;;;14.12;34.80;102162.03;5053746;28;20027;-73
2022/03/05 09:15:46;;;;;;;33.83;19.70;;;;;;;13.50;35.47;102183.81;5036762;28;20075;-72
2022/03/05 09:18:12;;;;;;;31.60;19.50;;;;;;;14.85;33.84;102181.31;5035079;28;20033;-72
2022/03/05 09:20:37;;;;;;;30.73;19.33;;;;;;;15.28;32.68;102177.03;5052703;28;20072;-72
2022/03/05 09:23:03;;;;;;;29.30;18.83;;;;;;;14.67;32.94;102184.28;5034908;28;20451;-71
2022/03/05 09:25:28;;;;;;;30.35;18.65;;;;;;;15.29;32.53;102196.06;5034995;28;20036;-72
2022/03/05 09:27:54;;;;;;;31.05;19.65;;;;;;;15.73;31.79;102172.47;5035977;28;20114;-72
2022/03/05 09:30:20;;;;;;;32.50;19.50;;;;;;;15.64;31.85;102168.34;5053851;28;20156;-76
2022/03/05 09:32:46;;;;;;;36.22;20.13;;;;;;;15.73;32.02;102169.88;5035920;28;20510;-75
2022/03/05 09:35:11;;;;;;;32.97;19.23;;;;;;;16.62;30.46;102191.97;5036076;28;20021;-76
2022/03/05 09:37:37;;;;;;;31.90;19.38;;;;;;;14.38;34.50;102178.03;5054024;28;20025;-76
2022/03/05 09:40:03;;;;;;;34.90;20.10;;;;;;;15.48;32.75;102173.84;5053730;28;20025;-76
2022/03/05 09:42:29;;;;;;;31.92;19.95;;;;;;;15.71;32.14;102176.28;5035738;28;20487;-76
2022/03/05 09:44:54;;;;;;;30.65;20.27;;;;;;;15.89;31.80;102161.00;5054163;28;20031;-75
2022/03/05 09:47:22;;;;;;;31.38;19.65;;;;;;;17.19;30.33;102159.50;5053754;28;20048;-75
2022/03/05 09:49:48;;;;;;;31.60;19.75;;;;;;;17.36;30.06;102159.94;5053856;28;20052;-75
2022/03/05 09:52:13;;;;;;;31.77;20.35;;;;;;;17.58;29.45;102147.50;5053640;28;20051;-76
2022/03/05 09:54:38;;;;;;;33.92;19.90;;;;;;;17.97;28.52;102151.16;5053630;28;20055;-77
2022/03/05 09:57:12;;;;;;;30.70;19.45;;;;;;;17.84;29.10;102154.59;5036382;28;20116;-75
2022/03/05 09:59:38;;;;;;;32.60;20.40;;;;;;;17.41;29.50;102151.50;5054141;28;20021;-74
2022/03/05 10:02:05;;;;;;;33.05;20.88;;;;;;;17.55;29.44;102156.56;5053810;28;20131;-75
2022/03/05 10:04:32;;;;;;;32.78;20.00;;;;;;;17.26;29.41;102160.34;5054513;28;20017;-76
2022/03/05 10:07:09;;;;;;;32.78;20.17;;;;;;;16.69;30.70;102156.28;5054145;28;20047;-75
2022/03/05 10:09:35;;;;;;;37.00;20.85;;;;;;;17.42;29.98;102156.53;5054549;28;20075;-74
2022/03/05 10:12:01;;;;;;;35.80;19.80;;;;;;;17.17;30.18;102153.66;5054097;28;20028;-74
2022/03/05 10:14:26;;;;;;;38.20;20.48;;;;;;;17.16;29.65;102157.28;5036131;28;20028;-76
2022/03/05 10:17:00;;;;;;;36.05;20.65;;;;;;;16.45;30.71;102152.34;5035894;28;20025;-74
2022/03/05 10:19:26;;;;;;;38.58;20.77;;;;;;;16.12;31.64;102152.94;5035727;28;20025;-75
2022/03/05 10:22:09;;;;;;;36.67;20.85;;;;;;;17.11;30.29;102152.63;5053820;28;20028;-74
2022/03/05 10:24:39;;;;;;;;;;;;;;;16.64;30.99;102150.84;5053765;28;20017;-75
2022/03/05 10:27:07;;;;;;;36.28;20.15;;;;;;;15.20;32.90;102148.50;5036161;28;19998;-75
2022/03/05 10:29:35;;;;;;;37.17;20.33;;;;;;;13.34;35.65;102153.53;5053887;28;20024;-74
2022/03/05 10:32:09;;;;;;;39.25;20.67;;;;;;;13.88;34.84;102153.47;5052746;28;20353;-74
2022/03/05 10:34:52;;;;;;;40.97;20.63;;;;;;;11.60;39.69;102160.19;5053748;28;20107;-75
2022/03/05 10:37:19;;;;;;;40.40;20.35;;;;;;;10.97;42.11;102159.69;5035369;28;20025;-73
2022/03/05 10:39:45;;;;;;;42.38;21.15;;;;;;;10.98;41.15;102143.19;5035011;28;20029;-73
2022/03/05 10:42:18;;;;;;;43.72;20.60;;;;;;;10.67;42.38;102166.16;5035172;28;20032;-76
2022/03/05 10:44:43;;;;;;;38.90;19.80;;;;;;;9.70;44.67;102157.53;5034480;28;20729;-74
2022/03/05 10:47:08;;;;;;;36.70;18.75;;;;;;;10.11;43.81;102151.91;5052980;28;20025;-74
2022/03/05 10:49:36;;;;;;;36.30;19.23;;;;;;;9.98;46.21;102147.09;5052299;28;20056;-74
2022/03/05 10:52:02;;;;;;;36.83;19.27;;;;;;;10.38;45.04;102153.56;5034659;28;20452;-74
2022/03/05 10:54:34;;;;;;;39.63;18.38;;;;;;;11.07;43.77;102155.19;5034446;28;20049;-74
2022/03/05 10:57:17;;;;;;;37.78;19.88;;;;;;;10.84;42.60;102159.31;5052380;28;20025;-74
2022/03/05 10:59:48;;;;;;;40.53;19.70;;;;;;;11.45;42.61;102150.47;5052636;28;20023;-74
2022/03/05 11:02:16;;;;;;;35.92;19.17;;;;;;;10.25;44.37;102158.31;5035275;28;20279;-73
2022/03/05 11:04:45;;;;;;;37.92;19.17;;;;;;;9.19;47.26;102155.56;5054239;28;20039;-74
2022/03/05 11:07:12;;;;;;;39.85;19.10;;;;;;;9.56;45.91;102152.88;5036281;28;20090;-73
2022/03/05 11:09:40;;;;;;;38.60;18.35;;;;;;;10.80;44.56;102147.66;5054819;28;20089;-75